createdAt,value
2023-05-25T04:44:10.645Z,22.50
2023-05-25T04:46:39.251Z,22.50
2023-05-25T04:49:06.287Z,22.50
2023-05-25T04:51:33.586Z,22.50
2023-05-25T04:54:00.440Z,22.50
2023-05-25T04:56:27.248Z,22.50
2023-05-25T04:58:54.053Z,22.50
2023-05-25T05:01:20.890Z,22.50
2023-05-25T05:03:47.715Z,22.50
2023-05-25T05:06:14.541Z,22.40
2023-05-25T05:08:41.830Z,22.50
2023-05-25T05:11:08.695Z,22.40
2023-05-25T05:13:36.811Z,22.40
2023-05-25T05:16:04.247Z,22.40
2023-05-25T05:18:31.213Z,22.40
2023-05-25T05:21:01.019Z,22.40
2023-05-25T05:23:27.914Z,22.30
2023-05-25T05:25:54.671Z,22.40
2023-05-25T05:28:28.567Z,22.40
2023-05-25T05:30:56.447Z,22.40
2023-05-25T05:33:26.841Z,22.40
2023-05-25T05:35:54.730Z,22.40
2023-05-25T05:38:21.516Z,22.40
2023-05-25T05:40:48.302Z,22.40
2023-05-25T05:43:15.137Z,22.40
2023-05-25T05:45:45.296Z,22.40
2023-05-25T05:48:15.483Z,22.40
2023-05-25T05:50:42.541Z,22.50
2023-05-25T05:53:10.146Z,22.60
2023-05-25T05:55:36.975Z,22.80
2023-05-25T05:58:03.755Z,22.90
2023-05-25T06:00:30.677Z,23.00
2023-05-25T06:02:57.774Z,23.00
2023-05-25T06:05:24.809Z,22.90
2023-05-25T06:07:51.882Z,22.90
2023-05-25T06:10:18.664Z,22.90
2023-05-25T06:12:48.492Z,22.80
2023-05-25T06:15:15.338Z,22.80
2023-05-25T06:17:46.478Z,22.70
2023-05-25T06:20:15.189Z,22.70
2023-05-25T06:22:42.150Z,22.70
2023-05-25T06:25:10.548Z,22.70
2023-05-25T06:27:37.529Z,22.60
2023-05-25T06:30:04.456Z,22.60
2023-05-25T06:32:31.309Z,22.60
2023-05-25T06:35:02.334Z,22.60
2023-05-25T06:37:35.260Z,22.60
2023-05-25T06:40:02.460Z,22.50
2023-05-25T06:42:29.192Z,22.50
2023-05-25T06:44:55.993Z,22.50
2023-05-25T06:47:22.974Z,22.50
2023-05-25T06:49:52.846Z,22.50
2023-05-25T06:52:19.554Z,22.50
2023-05-25T06:54:46.574Z,22.50
2023-05-25T06:57:13.286Z,22.50
2023-05-25T06:59:46.334Z,22.50
2023-05-25T07:02:13.169Z,22.50
2023-05-25T07:04:40.068Z,22.50
2023-05-25T07:07:09.575Z,22.40
2023-05-25T07:09:42.591Z,22.40
2023-05-25T07:12:11.123Z,22.50
2023-05-25T07:14:38.023Z,22.40
2023-05-25T07:17:04.849Z,22.40
2023-05-25T07:19:38.001Z,22.40
2023-05-25T07:22:04.827Z,22.40
2023-05-25T07:24:31.747Z,22.40
2023-05-25T07:26:58.539Z,22.40
2023-05-25T07:29:25.271Z,22.40
2023-05-25T07:31:55.106Z,22.40
2023-05-25T07:34:21.989Z,22.40
2023-05-25T07:36:48.815Z,22.40
2023-05-25T07:39:15.868Z,22.40
2023-05-25T07:41:42.653Z,22.40
2023-05-25T07:44:09.398Z,22.40
2023-05-25T07:46:36.540Z,22.40
2023-05-25T07:49:04.795Z,22.40
2023-05-25T07:51:34.679Z,22.40
2023-05-25T07:54:04.531Z,22.50
2023-05-25T07:56:31.335Z,22.60
2023-05-25T07:59:01.180Z,22.70
2023-05-25T08:01:31.107Z,22.80
2023-05-25T08:03:58.060Z,22.90
2023-05-25T08:06:24.879Z,23.10
2023-05-25T08:08:52.044Z,23.10
2023-05-25T08:11:23.035Z,23.10
2023-05-25T08:13:52.795Z,23.00
2023-05-25T08:16:19.576Z,23.00
2023-05-25T08:18:46.949Z,22.90
2023-05-25T08:21:14.124Z,22.80
2023-05-25T08:23:42.522Z,22.80
2023-05-25T08:26:31.268Z,22.80
2023-05-25T08:29:03.141Z,22.70
2023-05-25T08:31:31.318Z,22.70
2023-05-25T08:33:58.373Z,22.70
2023-05-25T08:36:34.288Z,22.70
2023-05-25T08:39:04.836Z,22.70
2023-05-25T08:41:32.331Z,22.70
2023-05-25T08:43:59.292Z,22.70
2023-05-25T08:46:30.578Z,22.70
2023-05-25T08:49:20.882Z,22.60
2023-05-25T08:51:51.532Z,22.60
2023-05-25T08:54:19.225Z,22.60
2023-05-25T08:56:49.247Z,22.60
2023-05-25T08:59:51.574Z,22.60
2023-05-25T09:02:30.687Z,22.60
2023-05-25T09:05:01.821Z,22.60
2023-05-25T09:07:31.910Z,22.60
2023-05-25T09:10:02.046Z,22.60
2023-05-25T09:12:32.199Z,22.60
2023-05-25T09:15:05.357Z,22.60
2023-05-25T09:17:38.096Z,22.60
2023-05-25T09:20:05.557Z,22.60
2023-05-25T09:22:38.502Z,22.60
2023-05-25T09:25:06.441Z,22.60
2023-05-25T09:27:34.127Z,22.60
2023-05-25T09:30:04.241Z,22.60
2023-05-25T09:32:31.139Z,22.60
2023-05-25T09:35:06.784Z,22.60
2023-05-25T09:37:33.790Z,22.60
2023-05-25T09:40:05.483Z,22.60
2023-05-25T09:42:32.730Z,22.50
2023-05-25T09:45:00.209Z,22.60
2023-05-25T09:47:29.134Z,22.70
2023-05-25T09:50:05.834Z,22.80
2023-05-25T09:52:32.761Z,22.90
2023-05-25T09:55:06.629Z,23.10
2023-05-25T09:57:33.385Z,23.20
2023-05-25T10:00:00.328Z,23.20
2023-05-25T10:02:28.537Z,23.10
2023-05-25T10:04:55.384Z,23.10
2023-05-25T10:07:25.143Z,23.10
2023-05-25T10:09:53.538Z,23.00
2023-05-25T10:12:26.492Z,23.00
2023-05-25T10:14:54.297Z,22.90
2023-05-25T10:17:21.582Z,22.90
2023-05-25T10:19:58.503Z,22.80
2023-05-25T10:22:44.120Z,22.90
2023-05-25T10:28:22.113Z,22.80
2023-05-25T10:30:51.311Z,22.80
2023-05-25T10:33:18.566Z,22.80
2023-05-25T10:36:02.284Z,22.80
2023-05-25T10:38:32.897Z,22.80
2023-05-25T10:40:59.863Z,22.80
2023-05-25T10:43:26.963Z,22.70
2023-05-25T10:45:56.916Z,22.70
2023-05-25T10:48:35.198Z,22.70
2023-05-25T10:51:01.970Z,22.70
2023-05-25T10:53:28.811Z,22.70
2023-05-25T10:55:58.691Z,22.70
2023-05-25T10:58:26.004Z,22.70
2023-05-25T11:01:00.111Z,22.80
2023-05-25T11:03:45.546Z,22.90
2023-05-25T11:06:19.103Z,23.00
2023-05-25T11:08:55.747Z,23.10
2023-05-25T11:11:23.207Z,23.20
2023-05-25T11:13:50.266Z,23.30
2023-05-25T11:16:18.058Z,23.20
2023-05-25T11:18:46.724Z,23.20
2023-05-25T11:21:23.870Z,23.20
2023-05-25T11:23:54.389Z,23.10
2023-05-25T11:26:24.270Z,23.10
2023-05-25T11:28:51.324Z,23.10
2023-05-25T11:31:23.557Z,23.00
2023-05-25T11:33:51.943Z,23.00
2023-05-25T11:36:21.407Z,23.00
2023-05-25T11:39:02.384Z,22.90
2023-05-25T11:41:36.670Z,22.90
2023-05-25T11:44:09.613Z,22.90
2023-05-25T11:46:39.901Z,22.90
2023-05-25T11:49:06.818Z,22.90
2023-05-25T11:51:33.558Z,22.80
2023-05-25T11:54:00.683Z,22.80
2023-05-25T11:56:34.787Z,22.80
2023-05-25T11:59:02.825Z,22.80
2023-05-25T12:01:32.174Z,22.80
2023-05-25T12:03:59.154Z,22.80
2023-05-25T12:06:36.833Z,22.80
2023-05-25T12:09:07.493Z,22.80
2023-05-25T12:11:54.401Z,22.70
2023-05-25T12:14:28.266Z,22.80
2023-05-25T12:16:58.180Z,22.90
2023-05-25T12:19:24.937Z,23.10
2023-05-25T12:21:52.184Z,23.20
2023-05-25T12:24:19.101Z,23.30
2023-05-25T12:26:49.607Z,23.30
2023-05-25T12:29:16.574Z,23.20
2023-05-25T12:31:43.708Z,23.20
2023-05-25T12:34:14.141Z,23.20
2023-05-25T12:36:41.941Z,23.10
2023-05-25T12:39:09.530Z,23.10
2023-05-25T12:41:46.341Z,23.10
2023-05-25T12:44:17.372Z,23.00
2023-05-25T12:46:45.388Z,23.00
2023-05-25T12:49:25.472Z,23.00
2023-05-25T12:51:52.265Z,23.00
2023-05-25T12:54:38.036Z,22.90
2023-05-25T12:57:11.938Z,22.90
2023-05-25T12:59:39.172Z,22.90
2023-05-25T13:02:12.290Z,22.90
2023-05-25T13:04:39.354Z,22.90
2023-05-25T13:07:09.255Z,22.80
2023-05-25T13:09:37.592Z,22.80
2023-05-25T13:12:04.490Z,22.80
2023-05-25T13:14:31.577Z,22.80
2023-05-25T13:16:58.390Z,22.80
2023-05-25T13:19:25.507Z,22.80
2023-05-25T13:21:56.825Z,22.90
2023-05-25T13:24:24.320Z,23.00
2023-05-25T13:26:57.296Z,23.10
2023-05-25T13:29:25.771Z,23.30
2023-05-25T13:31:52.552Z,23.30
2023-05-25T13:34:19.441Z,23.40
2023-05-25T13:36:49.359Z,23.40
2023-05-25T13:39:16.100Z,23.30
2023-05-25T13:41:43.943Z,23.30
2023-05-25T13:44:16.569Z,23.30
2023-05-25T13:46:44.430Z,23.20
2023-05-25T13:49:13.341Z,23.20
2023-05-25T13:51:41.529Z,23.10
2023-05-25T13:54:16.390Z,23.10
2023-05-25T13:56:43.620Z,23.10
2023-05-25T13:59:10.799Z,23.10
2023-05-25T14:01:37.606Z,23.00
2023-05-25T14:04:04.923Z,23.00
2023-05-25T14:06:31.949Z,23.00
2023-05-25T14:08:58.719Z,23.00
2023-05-25T14:11:28.749Z,22.90
2023-05-25T14:13:55.644Z,22.90
2023-05-25T14:16:22.667Z,22.90
2023-05-25T14:18:49.604Z,22.90
2023-05-25T14:21:16.451Z,22.90
2023-05-25T14:23:43.406Z,22.90
2023-05-25T14:26:13.161Z,22.90
2023-05-25T14:28:40.118Z,22.80
2023-05-25T14:31:07.745Z,22.80
2023-05-25T14:33:34.942Z,22.80
2023-05-25T14:36:02.155Z,22.90
2023-05-25T14:38:30.712Z,23.00
2023-05-25T14:41:01.099Z,23.10
2023-05-25T14:43:27.952Z,23.20
2023-05-25T14:45:54.779Z,23.40
2023-05-25T14:48:25.853Z,23.40
2023-05-25T14:50:53.206Z,23.40
2023-05-25T14:53:23.038Z,23.40
2023-05-25T14:55:50.126Z,23.40
2023-05-25T14:58:19.911Z,23.40
2023-05-25T15:00:46.893Z,23.30
2023-05-25T15:03:13.949Z,23.20
2023-05-25T15:05:40.967Z,23.20
2023-05-25T15:08:10.701Z,23.20
2023-05-25T15:10:37.624Z,23.20
2023-05-25T15:13:04.505Z,23.10
2023-05-25T15:15:31.423Z,23.10
2023-05-25T15:17:58.241Z,23.10
2023-05-25T15:20:25.028Z,23.10
2023-05-25T15:22:53.851Z,23.10
2023-05-25T15:25:35.007Z,23.00
2023-05-25T15:28:02.737Z,23.00
2023-05-25T15:30:29.568Z,22.90
2023-05-25T15:32:56.581Z,22.90
2023-05-25T15:35:23.346Z,23.00
2023-05-25T15:37:56.336Z,22.90
2023-05-25T15:40:23.177Z,22.90
2023-05-25T15:42:50.118Z,22.90
2023-05-25T15:45:17.030Z,22.90
2023-05-25T15:47:43.819Z,23.00
2023-05-25T15:50:11.225Z,23.10
2023-05-25T15:52:38.122Z,23.20
2023-05-25T15:55:05.239Z,23.30
2023-05-25T15:57:32.347Z,23.40
2023-05-25T15:59:59.133Z,23.50
2023-05-25T16:02:26.281Z,23.50
2023-05-25T16:04:53.268Z,23.50
2023-05-25T16:07:20.085Z,23.40
2023-05-25T16:09:47.015Z,23.40
2023-05-25T16:12:14.160Z,23.40
2023-05-25T16:14:41.068Z,23.30
2023-05-25T16:17:11.682Z,23.30
2023-05-25T16:19:38.510Z,23.30
2023-05-25T16:22:05.528Z,23.20
2023-05-25T16:24:32.302Z,23.20
2023-05-25T16:26:59.224Z,23.20
2023-05-25T16:29:26.271Z,23.20
2023-05-25T16:31:54.867Z,23.10
2023-05-25T16:34:21.967Z,23.10
2023-05-25T16:37:00.474Z,23.10
2023-05-25T16:39:30.256Z,23.10
2023-05-25T16:41:57.092Z,23.10
2023-05-25T16:44:23.974Z,23.10
2023-05-25T16:46:50.981Z,23.10
2023-05-25T16:49:17.897Z,23.10
2023-05-25T16:51:44.850Z,23.10
2023-05-25T16:54:11.781Z,23.00
2023-05-25T16:56:38.837Z,23.00
2023-05-25T16:59:05.597Z,23.10
2023-05-25T17:01:32.451Z,23.10
2023-05-25T17:04:09.145Z,23.20
2023-05-25T17:06:36.853Z,23.30
2023-05-25T17:09:03.919Z,23.40
2023-05-25T17:11:30.878Z,23.50
2023-05-25T17:13:58.086Z,23.50
2023-05-25T17:16:24.997Z,23.50
2023-05-25T17:18:52.021Z,23.40
2023-05-25T17:21:50.269Z,23.40
2023-05-25T17:24:18.261Z,23.30
2023-05-25T17:26:46.599Z,23.30
2023-05-25T17:29:16.553Z,23.30
2023-05-25T17:31:44.319Z,23.20
2023-05-25T17:34:15.528Z,23.20
2023-05-25T17:36:43.040Z,23.20
2023-05-25T17:39:12.995Z,23.20
2023-05-25T17:41:39.995Z,23.20
2023-05-25T17:44:06.956Z,23.20
2023-05-25T17:46:33.964Z,23.20
2023-05-25T17:49:00.775Z,23.20
2023-05-25T17:51:33.926Z,23.10
2023-05-25T17:54:01.122Z,23.10
2023-05-25T17:56:28.382Z,23.10
2023-05-25T17:58:58.250Z,23.10
2023-05-25T18:01:31.391Z,23.00
2023-05-25T18:03:58.741Z,23.10
2023-05-25T18:06:27.178Z,23.10
2023-05-25T18:08:55.978Z,23.10
2023-05-25T18:11:23.400Z,23.20
2023-05-25T18:13:56.285Z,23.30
2023-05-25T18:16:23.171Z,23.40
2023-05-25T18:18:50.014Z,23.50
2023-05-25T18:21:17.366Z,23.50
2023-05-25T18:23:44.169Z,23.60
2023-05-25T18:26:11.101Z,23.50
2023-05-25T18:28:38.034Z,23.50
2023-05-25T18:31:04.976Z,23.40
2023-05-25T18:33:31.842Z,23.40
2023-05-25T18:35:58.651Z,23.30
2023-05-25T18:38:25.548Z,23.30
2023-05-25T18:40:52.650Z,23.30
2023-05-25T18:43:19.460Z,23.30
2023-05-25T18:45:46.460Z,23.30
2023-05-25T18:48:14.085Z,23.20
2023-05-25T18:50:42.342Z,23.20
2023-05-25T18:53:15.271Z,23.20
2023-05-25T18:55:42.471Z,23.20
2023-05-25T18:58:09.371Z,23.20
2023-05-25T19:00:36.204Z,23.20
2023-05-25T19:03:03.263Z,23.10
2023-05-25T19:05:30.098Z,23.20
2023-05-25T19:07:59.665Z,23.10
2023-05-25T19:10:26.813Z,23.10
2023-05-25T19:12:56.649Z,23.10
2023-05-25T19:15:23.602Z,23.10
2023-05-25T19:17:50.869Z,23.10
2023-05-25T19:20:17.816Z,23.10
2023-05-25T19:22:44.684Z,23.00
2023-05-25T19:25:11.645Z,23.00
2023-05-25T19:27:41.546Z,23.00
2023-05-25T19:30:08.570Z,23.00
2023-05-25T19:32:42.047Z,23.00
2023-05-25T19:35:09.033Z,23.00
2023-05-25T19:37:37.792Z,23.00
2023-05-25T19:40:04.956Z,23.00
2023-05-25T19:42:34.868Z,22.90
2023-05-25T19:45:08.137Z,22.90
2023-05-25T19:47:35.219Z,22.90
2023-05-25T19:50:02.200Z,23.00
2023-05-25T19:52:30.235Z,23.10
2023-05-25T19:55:00.125Z,23.20
2023-05-25T19:57:27.491Z,23.30
2023-05-25T19:59:54.308Z,23.50
2023-05-25T20:02:21.235Z,23.60
2023-05-25T20:04:48.319Z,23.50
2023-05-25T20:07:18.585Z,23.50
2023-05-25T20:09:45.511Z,23.50
2023-05-25T20:12:12.627Z,23.40
2023-05-25T20:14:39.526Z,23.40
2023-05-25T20:17:06.385Z,23.30
2023-05-25T20:19:33.177Z,23.30
2023-05-25T20:22:01.872Z,23.30
2023-05-25T20:24:28.706Z,23.20
2023-05-25T20:26:56.894Z,23.20
2023-05-25T20:29:23.969Z,23.20
2023-05-25T20:31:50.869Z,23.20
2023-05-25T20:34:20.792Z,23.10
2023-05-25T20:36:47.600Z,23.10
2023-05-25T20:39:20.658Z,23.10
2023-05-25T20:41:47.567Z,23.10
2023-05-25T20:44:17.168Z,23.10
2023-05-25T20:46:43.942Z,23.10
2023-05-25T20:49:13.859Z,23.10
2023-05-25T20:51:49.949Z,23.00
2023-05-25T20:54:17.476Z,23.00
2023-05-25T20:56:51.236Z,23.00
2023-05-25T20:59:18.070Z,23.00
2023-05-25T21:01:44.994Z,23.00
2023-05-25T21:04:14.977Z,22.90
2023-05-25T21:06:41.938Z,23.00
2023-05-25T21:09:11.793Z,23.00
2023-05-25T21:11:38.606Z,22.90
2023-05-25T21:14:05.381Z,22.90
2023-05-25T21:16:32.219Z,22.90
2023-05-25T21:18:58.988Z,22.90
2023-05-25T21:21:25.879Z,22.90
2023-05-25T21:23:52.741Z,22.90
2023-05-25T21:26:19.528Z,22.90
2023-05-25T21:28:46.359Z,22.90
2023-05-25T21:31:20.694Z,22.80
2023-05-25T21:33:51.269Z,22.90
2023-05-25T21:36:18.036Z,22.80
2023-05-25T21:38:45.029Z,22.90
2023-05-25T21:41:11.883Z,22.90
2023-05-25T21:43:38.690Z,23.10
2023-05-25T21:46:05.594Z,23.20
2023-05-25T21:48:38.565Z,23.30
2023-05-25T21:51:05.611Z,23.40
2023-05-25T21:53:35.474Z,23.50
2023-05-25T21:56:02.318Z,23.50
2023-05-25T21:58:29.100Z,23.50
2023-05-25T22:00:56.056Z,23.40
2023-05-25T22:03:25.933Z,23.40
2023-05-25T22:05:52.776Z,23.30
2023-05-25T22:08:19.519Z,23.30
2023-05-25T22:10:49.055Z,23.20
2023-05-25T22:13:15.868Z,23.20
2023-05-25T22:15:43.892Z,23.20
2023-05-25T22:18:10.883Z,23.10
2023-05-25T22:20:38.993Z,23.10
2023-05-25T22:23:06.234Z,23.10
2023-05-25T22:25:33.067Z,23.10
2023-05-25T22:28:02.994Z,23.10
2023-05-25T22:30:29.757Z,23.10
2023-05-25T22:32:56.572Z,23.00
2023-05-25T22:35:23.472Z,23.00
2023-05-25T22:37:50.311Z,23.00
2023-05-25T22:40:17.080Z,23.00
2023-05-25T22:42:49.998Z,22.90
2023-05-25T22:45:20.420Z,22.90
2023-05-25T22:47:47.188Z,22.90
2023-05-25T22:50:14.070Z,22.90
2023-05-25T22:52:41.067Z,22.90
2023-05-25T22:55:08.421Z,22.90
2023-05-25T22:57:38.341Z,22.80
2023-05-25T23:00:05.520Z,22.90
2023-05-25T23:02:35.453Z,22.80
2023-05-25T23:05:09.899Z,22.80
2023-05-25T23:07:36.688Z,22.80
2023-05-25T23:10:04.206Z,22.80
2023-05-25T23:12:37.141Z,22.80
2023-05-25T23:15:04.204Z,22.80
2023-05-25T23:17:31.779Z,22.80
2023-05-25T23:20:07.052Z,22.80
2023-05-25T23:22:37.006Z,22.80
2023-05-25T23:25:03.861Z,22.80
2023-05-25T23:27:31.473Z,22.70
2023-05-25T23:30:02.155Z,22.70
2023-05-25T23:32:29.483Z,22.80
2023-05-25T23:34:59.301Z,22.70
2023-05-25T23:37:26.886Z,22.80
2023-05-25T23:39:53.649Z,23.00
2023-05-25T23:42:20.541Z,23.10
2023-05-25T23:44:47.376Z,23.20
2023-05-25T23:47:14.155Z,23.30
2023-05-25T23:49:41.040Z,23.40
2023-05-25T23:52:07.801Z,23.40
2023-05-25T23:54:34.568Z,23.40
2023-05-25T23:57:07.364Z,23.30
2023-05-25T23:59:34.189Z,23.30
